Time;durP1;ratioP1;P1;durP2;ratioP2;P2;SDS_P1;SDS_P2;PMS_P1;PMS_P2;Temp;Humidity;BMP_temperature;BMP_pressure;BME280_temperature;BME280_humidity;BME280_pressure;Samples;Min_cycle;Max_cycle;Signal;HPM_P1;HPM_P2
2021/06/11 00:02:22;;;;;;;4.90;3.38;;;;;;;;;;5052549;28;20025;-85
2021/06/11 00:04:47;;;;;;;10.05;3.28;;;;;;;;;;5050885;28;20017;-85
2021/06/11 00:07:12;;;;;;;6.63;3.22;;;;;;;;;;5052440;28;20047;-85
2021/06/11 00:09:37;;;;;;;8.13;3.42;;;;;;;;;;5052259;28;20412;-85
2021/06/11 00:12:03;;;;;;;7.90;4.05;;;;;;;;;;5050926;28;20503;-85
2021/06/11 00:14:28;;;;;;;5.03;3.40;;;;;;;;;;5052335;28;20100;-85
2021/06/11 00:16:53;;;;;;;6.18;3.67;;;;;;;;;;5050753;28;20039;-85
2021/06/11 00:19:19;;;;;;;7.20;3.90;;;;;;;;;;5051029;28;20075;-85
2021/06/11 00:21:44;;;;;;;6.88;3.75;;;;;;;;;;5053905;28;20024;-85
2021/06/11 00:24:09;;;;;;;12.43;3.47;;;;;;;;;;5056418;28;20021;-85
2021/06/11 00:26:34;;;;;;;6.85;3.33;;;;;;;;;;5054971;28;20384;-85
2021/06/11 00:28:59;;;;;;;6.32;3.78;;;;;;;;;;5054887;28;20413;-85
2021/06/11 00:31:25;;;;;;;9.52;3.75;;;;;;;;;;5056103;28;20017;-85
2021/06/11 00:33:50;;;;;;;6.22;3.40;;;;;;;;;;5054688;28;20017;-85
2021/06/11 00:36:15;;;;;;;4.68;3.20;;;;;;;;;;5054970;28;20111;-85
2021/06/11 00:38:40;;;;;;;6.05;3.72;;;;;;;;;;5056010;28;20017;-85
2021/06/11 00:41:06;;;;;;;6.00;3.20;;;;;;;;;;5054517;28;20216;-85
2021/06/11 00:43:31;;;;;;;7.70;3.47;;;;;;;;;;5056031;28;20029;-85
2021/06/11 00:45:56;;;;;;;4.32;3.08;;;;;;;;;;5054543;28;20017;-85
2021/06/11 00:48:22;;;;;;;8.85;3.22;;;;;;;;;;5054633;28;20127;-85
2021/06/11 00:50:47;;;;;;;9.45;3.13;;;;;;;;;;5054413;28;20029;-85
2021/06/11 00:53:12;;;;;;;4.75;2.88;;;;;;;;;;5055859;28;20017;-85
2021/06/11 00:55:43;;;;;;;9.98;4.03;;;;;;;;;;5054360;28;20111;-85
2021/06/11 00:58:09;;;;;;;3.80;3.00;;;;;;;;;;5054486;28;20017;-85
2021/06/11 01:00:34;;;;;;;7.18;3.47;;;;;;;;;;5055622;28;20028;-85
2021/06/11 01:02:59;;;;;;;6.10;2.92;;;;;;;;;;5054129;28;20468;-85
2021/06/11 01:05:24;;;;;;;7.47;3.10;;;;;;;;;;5055559;28;20025;-85
2021/06/11 01:07:51;;;;;;;8.80;3.30;;;;;;;;;;5054079;28;20109;-85
2021/06/11 01:10:17;;;;;;;4.07;3.15;;;;;;;;;;5053927;28;20051;-85
2021/06/11 01:12:42;;;;;;;5.05;2.85;;;;;;;;;;5055572;28;20055;-85
2021/06/11 01:15:09;;;;;;;5.35;3.35;;;;;;;;;;5053911;28;20094;-85
2021/06/11 01:17:35;;;;;;;5.40;3.35;;;;;;;;;;5055470;28;20044;-85
2021/06/11 01:20:01;;;;;;;11.07;3.50;;;;;;;;;;5053737;28;20043;-85
2021/06/11 01:22:39;;;;;;;4.82;3.22;;;;;;;;;;5054053;28;20021;-85
2021/06/11 01:25:08;;;;;;;8.25;4.25;;;;;;;;;;5085308;28;20348;-85
2021/06/11 01:27:35;;;;;;;9.65;3.83;;;;;;;;;;5053777;28;20464;-85
2021/06/11 01:30:11;;;;;;;8.68;3.63;;;;;;;;;;5053752;28;20102;-85
2021/06/11 01:32:37;;;;;;;6.15;4.00;;;;;;;;;;5052366;28;20407;-85
2021/06/11 01:35:05;;;;;;;6.03;3.60;;;;;;;;;;5054913;28;20025;-85
2021/06/11 01:37:33;;;;;;;6.60;3.28;;;;;;;;;;5054977;28;20020;-85
2021/06/11 01:39:59;;;;;;;5.22;2.92;;;;;;;;;;5053586;28;20021;-85
2021/06/11 01:42:26;;;;;;;8.60;3.90;;;;;;;;;;5053771;28;20075;-85
2021/06/11 01:44:53;;;;;;;8.40;4.15;;;;;;;;;;5053600;28;20025;-85
2021/06/11 01:47:19;;;;;;;6.97;4.00;;;;;;;;;;5053617;28;20017;-85
2021/06/11 01:49:45;;;;;;;7.32;3.85;;;;;;;;;;5054501;28;20062;-85
2021/06/11 01:52:11;;;;;;;6.05;3.50;;;;;;;;;;5054724;28;20021;-85
2021/06/11 01:54:37;;;;;;;9.63;3.70;;;;;;;;;;5054316;28;20074;-85
2021/06/11 01:57:02;;;;;;;6.03;3.90;;;;;;;;;;5053252;28;20013;-85
2021/06/11 01:59:28;;;;;;;8.43;3.85;;;;;;;;;;5053250;28;20029;-85
2021/06/11 02:01:54;;;;;;;6.63;3.90;;;;;;;;;;5053199;28;20024;-85
2021/06/11 02:04:19;;;;;;;7.53;3.50;;;;;;;;;;5053154;28;20184;-85
2021/06/11 02:06:45;;;;;;;6.65;3.63;;;;;;;;;;5053078;28;20044;-85
2021/06/11 02:09:11;;;;;;;4.65;3.22;;;;;;;;;;5054623;28;20027;-85
2021/06/11 02:11:40;;;;;;;8.55;3.70;;;;;;;;;;5054460;28;20028;-85
2021/06/11 02:14:05;;;;;;;6.53;3.63;;;;;;;;;;5053077;28;20029;-85
2021/06/11 02:16:31;;;;;;;9.95;3.30;;;;;;;;;;5053028;28;20399;-85
2021/06/11 02:19:00;;;;;;;6.60;3.90;;;;;;;;;;5052800;28;20405;-85
2021/06/11 02:21:26;;;;;;;6.88;3.60;;;;;;;;;;5052876;28;20021;-85
2021/06/11 02:23:51;;;;;;;6.25;3.25;;;;;;;;;;5054065;28;20012;-85
2021/06/11 02:26:17;;;;;;;5.18;3.17;;;;;;;;;;5052910;28;20016;-85
2021/06/11 02:28:42;;;;;;;8.55;4.85;;;;;;;;;;5052598;28;20043;-85
2021/06/11 02:31:07;;;;;;;5.75;3.58;;;;;;;;;;5053889;28;20024;-85
2021/06/11 02:33:33;;;;;;;6.32;3.13;;;;;;;;;;5052679;28;20025;-85
2021/06/11 02:35:58;;;;;;;5.57;3.38;;;;;;;;;;5052451;28;20373;-84
2021/06/11 02:38:23;;;;;;;6.32;3.45;;;;;;;;;;5052627;28;20107;-85
2021/06/11 02:40:50;;;;;;;4.45;3.08;;;;;;;;;;5052360;28;20028;-84
2021/06/11 02:43:16;;;;;;;7.97;4.03;;;;;;;;;;5053172;28;20031;-85
2021/06/11 02:46:02;;;;;;;8.15;3.47;;;;;;;;;;5052156;28;20021;-84
2021/06/11 02:48:48;;;;;;;9.05;3.50;;;;;;;;;;5042522;28;20044;-85
2021/06/11 02:51:34;;;;;;;9.35;3.40;;;;;;;;;;5052004;28;20497;-84
2021/06/11 02:54:00;;;;;;;6.03;3.35;;;;;;;;;;5052248;28;20163;-85
2021/06/11 02:56:33;;;;;;;9.10;3.67;;;;;;;;;;5053174;28;20025;-84
2021/06/11 02:59:01;;;;;;;4.95;3.53;;;;;;;;;;5052197;28;20020;-85
2021/06/11 03:01:27;;;;;;;8.45;3.75;;;;;;;;;;5053250;28;20158;-85
2021/06/11 03:03:52;;;;;;;8.35;3.63;;;;;;;;;;5052136;28;20048;-85
2021/06/11 03:06:19;;;;;;;6.65;4.10;;;;;;;;;;5051804;28;20025;-84
2021/06/11 03:08:45;;;;;;;7.55;3.70;;;;;;;;;;5051915;28;20056;-85
2021/06/11 03:11:18;;;;;;;8.90;4.07;;;;;;;;;;5051773;28;20610;-85
2021/06/11 03:13:44;;;;;;;9.38;3.42;;;;;;;;;;5038823;28;20476;-85
2021/06/11 03:16:10;;;;;;;5.72;3.30;;;;;;;;;;5051932;28;20028;-85
2021/06/11 03:18:40;;;;;;;8.75;3.35;;;;;;;;;;5052985;28;20026;-85
2021/06/11 03:21:15;;;;;;;11.43;3.83;;;;;;;;;;5053212;28;20021;-84
2021/06/11 03:23:42;;;;;;;5.80;3.35;;;;;;;;;;5051343;28;20115;-85
2021/06/11 03:26:08;;;;;;;7.50;3.22;;;;;;;;;;5052903;28;20028;-85
2021/06/11 03:28:41;;;;;;;8.05;3.50;;;;;;;;;;5051593;28;20024;-85
2021/06/11 03:31:07;;;;;;;4.07;3.00;;;;;;;;;;5051422;28;20043;-84
2021/06/11 03:33:35;;;;;;;7.45;3.70;;;;;;;;;;5051408;28;20017;-84
2021/06/11 03:36:19;;;;;;;5.25;3.13;;;;;;;;;;5051150;28;20024;-84
2021/06/11 03:38:46;;;;;;;4.65;3.10;;;;;;;;;;5051515;28;20051;-85
2021/06/11 03:41:13;;;;;;;7.28;3.55;;;;;;;;;;5050948;28;20025;-84
2021/06/11 03:43:38;;;;;;;5.60;3.08;;;;;;;;;;5051335;28;20488;-85
2021/06/11 03:46:05;;;;;;;4.65;3.00;;;;;;;;;;5052603;28;20013;-84
2021/06/11 03:48:32;;;;;;;5.78;3.05;;;;;;;;;;5051101;28;20021;-85
2021/06/11 03:50:58;;;;;;;8.70;3.20;;;;;;;;;;5051024;28;20354;-84
2021/06/11 03:53:24;;;;;;;6.40;3.55;;;;;;;;;;5051252;28;20024;-84
2021/06/11 03:55:52;;;;;;;8.07;3.25;;;;;;;;;;5050590;28;20463;-84
2021/06/11 03:58:28;;;;;;;5.20;3.60;;;;;;;;;;5051178;28;20021;-84
2021/06/11 04:00:55;;;;;;;6.30;3.75;;;;;;;;;;5051139;28;20498;-84
2021/06/11 04:03:20;;;;;;;4.78;3.13;;;;;;;;;;5050957;28;20024;-84
2021/06/11 04:05:46;;;;;;;7.68;3.10;;;;;;;;;;5052400;28;20017;-85
2021/06/11 04:08:15;;;;;;;5.45;3.20;;;;;;;;;;5050971;28;20017;-85
2021/06/11 04:10:44;;;;;;;4.15;2.90;;;;;;;;;;5052174;28;20075;-84
2021/06/11 04:13:28;;;;;;;7.13;2.75;;;;;;;;;;5050845;28;20036;-84
2021/06/11 04:15:54;;;;;;;5.32;2.60;;;;;;;;;;5051118;28;20040;-84
2021/06/11 04:18:23;;;;;;;6.65;3.17;;;;;;;;;;5050757;28;20041;-84
2021/06/11 04:20:51;;;;;;;4.60;2.67;;;;;;;;;;5052300;28;20162;-84
2021/06/11 04:23:18;;;;;;;10.55;3.30;;;;;;;;;;5050643;28;20052;-84
2021/06/11 04:25:44;;;;;;;8.13;3.13;;;;;;;;;;5050599;28;20024;-84
2021/06/11 04:28:09;;;;;;;5.10;3.47;;;;;;;;;;5050706;28;20036;-84
2021/06/11 04:30:35;;;;;;;5.22;2.97;;;;;;;;;;5050858;28;20029;-84
2021/06/11 04:33:00;;;;;;;4.45;2.83;;;;;;;;;;5050919;28;20461;-84
2021/06/11 04:35:27;;;;;;;7.68;3.10;;;;;;;;;;5052234;28;20468;-85
2021/06/11 04:37:52;;;;;;;7.30;2.83;;;;;;;;;;5084307;28;20025;-84
2021/06/11 04:40:18;;;;;;;9.45;3.75;;;;;;;;;;5052040;28;20021;-84
2021/06/11 04:42:43;;;;;;;4.35;3.10;;;;;;;;;;5050448;28;20067;-84
2021/06/11 04:45:09;;;;;;;6.03;3.22;;;;;;;;;;5052047;28;20021;-84
2021/06/11 04:47:34;;;;;;;8.57;3.22;;;;;;;;;;5051898;28;20013;-84
2021/06/11 04:49:59;;;;;;;6.25;3.28;;;;;;;;;;5050529;28;20028;-84
2021/06/11 04:52:24;;;;;;;6.47;3.13;;;;;;;;;;5050601;28;20021;-85
2021/06/11 04:54:49;;;;;;;5.57;3.17;;;;;;;;;;5050340;28;20432;-84
2021/06/11 04:57:15;;;;;;;5.25;3.22;;;;;;;;;;5050424;28;20028;-84
2021/06/11 04:59:41;;;;;;;8.68;3.60;;;;;;;;;;5050489;28;20096;-85
2021/06/11 05:02:06;;;;;;;10.43;3.58;;;;;;;;;;5050516;28;20036;-84
2021/06/11 05:04:31;;;;;;;6.95;3.78;;;;;;;;;;5050372;28;20028;-85
2021/06/11 05:06:57;;;;;;;8.20;3.70;;;;;;;;;;5051808;28;20025;-85
2021/06/11 05:09:23;;;;;;;6.90;3.83;;;;;;;;;;5055374;28;20024;-84
2021/06/11 05:11:48;;;;;;;6.22;3.63;;;;;;;;;;5053816;28;20183;-85
2021/06/11 05:14:13;;;;;;;9.40;3.95;;;;;;;;;;5054264;28;20059;-84
2021/06/11 05:16:38;;;;;;;8.80;4.32;;;;;;;;;;5053848;28;20032;-84
2021/06/11 05:19:04;;;;;;;10.85;4.30;;;;;;;;;;5054201;28;20019;-84
2021/06/11 05:21:30;;;;;;;11.93;4.53;;;;;;;;;;5054853;28;20392;-84
2021/06/11 05:23:55;;;;;;;13.73;4.65;;;;;;;;;;5053308;28;20051;-84
2021/06/11 05:26:20;;;;;;;13.43;5.82;;;;;;;;;;5052850;28;20388;-84
2021/06/11 05:28:45;;;;;;;15.48;4.97;;;;;;;;;;5053503;28;20033;-85
2021/06/11 05:31:10;;;;;;;13.95;4.97;;;;;;;;;;5053998;28;20027;-84
2021/06/11 05:33:36;;;;;;;15.20;5.97;;;;;;;;;;5055080;28;20016;-84
2021/06/11 05:36:01;;;;;;;14.98;5.75;;;;;;;;;;5053592;28;20479;-84
2021/06/11 05:38:26;;;;;;;17.42;6.10;;;;;;;;;;5053686;28;20021;-84
2021/06/11 05:40:53;;;;;;;17.10;5.45;;;;;;;;;;5053575;28;20025;-84
2021/06/11 05:43:18;;;;;;;20.58;6.10;;;;;;;;;;5053572;28;20115;-85
2021/06/11 05:45:43;;;;;;;19.48;6.22;;;;;;;;;;5053152;28;20059;-84
2021/06/11 05:48:09;;;;;;;29.70;7.43;;;;;;;;;;5053677;28;20537;-85
2021/06/11 05:50:34;;;;;;;23.20;7.68;;;;;;;;;;5053244;28;20037;-84
2021/06/11 05:53:00;;;;;;;22.98;7.05;;;;;;;;;;5053530;28;20027;-84
2021/06/11 05:55:25;;;;;;;24.05;7.60;;;;;;;;;;5053029;28;20064;-85
2021/06/11 05:57:51;;;;;;;27.45;8.02;;;;;;;;;;5054335;28;20025;-84
2021/06/11 06:00:16;;;;;;;28.25;7.30;;;;;;;;;;5054085;28;20021;-84
2021/06/11 06:02:41;;;;;;;22.05;6.25;;;;;;;;;;5051500;28;20028;-84
2021/06/11 06:05:08;;;;;;;20.33;6.45;;;;;;;;;;5052855;28;20020;-87
2021/06/11 06:07:36;;;;;;;19.65;6.88;;;;;;;;;;5053358;28;20021;-85
2021/06/11 06:10:03;;;;;;;20.15;6.45;;;;;;;;;;5052841;28;20041;-85
2021/06/11 06:12:28;;;;;;;19.17;6.43;;;;;;;;;;5049436;28;20033;-85
2021/06/11 06:14:53;;;;;;;20.92;6.90;;;;;;;;;;5045209;28;20021;-85
2021/06/11 06:17:18;;;;;;;18.10;6.75;;;;;;;;;;5051052;28;20415;-85
2021/06/11 06:19:44;;;;;;;24.00;6.10;;;;;;;;;;5051999;28;20401;-85
2021/06/11 06:22:10;;;;;;;22.83;6.65;;;;;;;;;;5050714;28;20029;-85
2021/06/11 06:24:35;;;;;;;17.98;6.15;;;;;;;;;;5049989;28;20056;-85
2021/06/11 06:27:00;;;;;;;13.30;5.90;;;;;;;;;;5046531;28;20033;-84
2021/06/11 06:29:25;;;;;;;17.90;6.88;;;;;;;;;;5053734;28;20116;-84
2021/06/11 06:31:50;;;;;;;27.92;8.50;;;;;;;;;;5051879;28;20124;-84
2021/06/11 06:34:15;;;;;;;27.27;8.18;;;;;;;;;;5052623;28;20464;-84
2021/06/11 06:36:41;;;;;;;22.58;7.20;;;;;;;;;;5053599;28;20013;-84
2021/06/11 06:39:08;;;;;;;17.55;6.50;;;;;;;;;;5052287;28;20017;-84
2021/06/11 06:41:35;;;;;;;19.23;7.20;;;;;;;;;;5053455;28;20029;-84
2021/06/11 06:44:01;;;;;;;24.15;7.40;;;;;;;;;;5051866;28;20116;-83
2021/06/11 06:46:26;;;;;;;20.83;7.00;;;;;;;;;;5051908;28;20060;-84
2021/06/11 06:48:52;;;;;;;15.73;7.05;;;;;;;;;;5051629;28;20033;-84
2021/06/11 06:51:19;;;;;;;27.13;8.50;;;;;;;;;;5051449;28;20028;-84
2021/06/11 06:53:44;;;;;;;21.13;6.78;;;;;;;;;;5051774;28;20021;-84
2021/06/11 06:56:10;;;;;;;22.05;7.20;;;;;;;;;;5051608;28;20024;-84
2021/06/11 06:58:38;;;;;;;19.30;8.55;;;;;;;;;;5051736;28;20151;-84
2021/06/11 07:01:04;;;;;;;27.30;8.00;;;;;;;;;;5052454;28;20070;-84
2021/06/11 07:03:29;;;;;;;17.95;7.35;;;;;;;;;;5051693;28;20017;-84
2021/06/11 07:05:54;;;;;;;20.52;7.05;;;;;;;;;;5051517;28;20024;-84
2021/06/11 07:08:19;;;;;;;20.77;8.73;;;;;;;;;;5051270;28;20028;-83
2021/06/11 07:10:44;;;;;;;14.43;6.18;;;;;;;;;;5051960;28;20036;-84
2021/06/11 07:13:13;;;;;;;15.20;6.18;;;;;;;;;;5051405;28;20092;-84
2021/06/11 07:15:39;;;;;;;13.35;6.18;;;;;;;;;;5051369;28;20025;-84
2021/06/11 07:18:04;;;;;;;18.10;6.03;;;;;;;;;;5051270;28;20369;-84
2021/06/11 07:20:30;;;;;;;14.35;5.80;;;;;;;;;;5052366;28;20025;-84
2021/06/11 07:22:55;;;;;;;15.70;6.05;;;;;;;;;;5051267;28;20029;-84
2021/06/11 07:25:20;;;;;;;13.30;5.28;;;;;;;;;;5050691;28;20013;-83
2021/06/11 07:27:45;;;;;;;15.82;5.95;;;;;;;;;;5052529;28;20461;-84
2021/06/11 07:30:11;;;;;;;16.10;5.90;;;;;;;;;;5050595;28;20024;-84
2021/06/11 07:32:36;;;;;;;14.90;6.40;;;;;;;;;;5052146;28;20025;-84
2021/06/11 07:35:02;;;;;;;13.85;5.47;;;;;;;;;;5050487;28;20028;-84
2021/06/11 07:37:27;;;;;;;17.40;6.70;;;;;;;;;;5050653;28;20035;-84
2021/06/11 07:39:52;;;;;;;16.95;5.95;;;;;;;;;;5050140;28;20044;-84
2021/06/11 07:42:18;;;;;;;11.63;4.80;;;;;;;;;;5050885;28;20021;-84
2021/06/11 07:44:43;;;;;;;11.40;4.63;;;;;;;;;;5050790;28;20028;-84
2021/06/11 07:47:08;;;;;;;8.57;4.30;;;;;;;;;;5052137;28;20489;-84
2021/06/11 07:49:34;;;;;;;18.60;5.13;;;;;;;;;;5051678;28;20051;-84
2021/06/11 07:51:59;;;;;;;11.50;4.88;;;;;;;;;;5050121;28;20116;-84
2021/06/11 07:54:25;;;;;;;14.18;5.35;;;;;;;;;;5050035;28;20115;-84
2021/06/11 07:56:50;;;;;;;11.52;4.43;;;;;;;;;;5050351;28;20025;-84
2021/06/11 07:59:15;;;;;;;9.50;4.25;;;;;;;;;;5052204;28;20461;-84
2021/06/11 08:01:41;;;;;;;11.82;4.10;;;;;;;;;;5050838;28;20529;-84
2021/06/11 08:04:06;;;;;;;11.05;4.88;;;;;;;;;;5050817;28;20123;-84
2021/06/11 08:06:31;;;;;;;11.30;4.60;;;;;;;;;;5050047;28;20066;-84
2021/06/11 08:08:57;;;;;;;11.13;4.97;;;;;;;;;;5051826;28;20029;-84
2021/06/11 08:11:22;;;;;;;8.15;3.50;;;;;;;;;;5050170;28;20325;-84
2021/06/11 08:13:47;;;;;;;9.38;3.80;;;;;;;;;;5050621;28;20021;-84
2021/06/11 08:16:13;;;;;;;12.23;4.57;;;;;;;;;;5050501;28;20017;-84
2021/06/11 08:18:38;;;;;;;10.23;3.83;;;;;;;;;;5050083;28;20384;-84
2021/06/11 08:21:03;;;;;;;9.30;3.83;;;;;;;;;;5050144;28;20025;-84
2021/06/11 08:23:28;;;;;;;8.20;3.70;;;;;;;;;;5051213;28;20021;-84
2021/06/11 08:25:54;;;;;;;8.63;3.50;;;;;;;;;;5051286;28;20073;-85
2021/06/11 08:28:19;;;;;;;8.65;3.53;;;;;;;;;;5050163;28;20432;-84
2021/06/11 08:30:44;;;;;;;8.73;3.40;;;;;;;;;;5051326;28;20024;-84
2021/06/11 08:33:10;;;;;;;8.48;3.10;;;;;;;;;;5050384;28;20032;-84
2021/06/11 08:35:35;;;;;;;7.50;3.13;;;;;;;;;;5050076;28;20048;-84
2021/06/11 08:38:00;;;;;;;11.43;3.20;;;;;;;;;;5050190;28;20028;-84
2021/06/11 08:40:25;;;;;;;7.13;3.58;;;;;;;;;;5050030;28;20469;-84
2021/06/11 08:42:51;;;;;;;11.85;3.50;;;;;;;;;;5052776;28;20020;-84
2021/06/11 08:45:17;;;;;;;13.18;3.78;;;;;;;;;;5055851;28;20025;-84
2021/06/11 08:47:48;;;;;;;8.13;3.45;;;;;;;;;;5055374;28;20044;-84
2021/06/11 08:50:16;;;;;;;11.85;3.70;;;;;;;;;;5054003;28;20100;-84
2021/06/11 08:52:41;;;;;;;9.50;4.10;;;;;;;;;;5053898;28;20094;-84
2021/06/11 08:55:07;;;;;;;9.48;4.68;;;;;;;;;;5053588;28;20441;-85
2021/06/11 08:57:32;;;;;;;9.30;4.32;;;;;;;;;;5053537;28;20025;-84
2021/06/11 08:59:57;;;;;;;11.98;5.13;;;;;;;;;;5055149;28;20433;-84
2021/06/11 09:02:23;;;;;;;11.07;4.35;;;;;;;;;;5054130;28;20044;-84
2021/06/11 09:04:57;;;;;;;10.18;3.90;;;;;;;;;;5053947;28;20418;-84
2021/06/11 09:07:28;;;;;;;9.13;3.90;;;;;;;;;;5055205;28;20103;-84
2021/06/11 09:10:02;;;;;;;9.07;3.67;;;;;;;;;;5053961;28;20013;-85
2021/06/11 09:12:28;;;;;;;10.70;3.58;;;;;;;;;;5055483;28;20078;-85
2021/06/11 09:14:53;;;;;;;11.20;4.40;;;;;;;;;;5054942;28;20025;-85
2021/06/11 09:17:31;;;;;;;10.05;3.75;;;;;;;;;;5055096;28;20074;-85
2021/06/11 09:20:07;;;;;;;22.77;3.75;;;;;;;;;;5053630;28;20017;-85
2021/06/11 09:22:51;;;;;;;10.73;3.38;;;;;;;;;;5053497;28;20017;-85
2021/06/11 09:25:27;;;;;;;7.85;2.88;;;;;;;;;;5068106;28;20060;-85
2021/06/11 09:27:54;;;;;;;11.85;3.53;;;;;;;;;;5053751;28;20480;-85
2021/06/11 09:30:19;;;;;;;6.63;3.42;;;;;;;;;;5053737;28;20423;-85
2021/06/11 09:33:04;;;;;;;9.70;3.13;;;;;;;;;;5054702;28;20017;-85
2021/06/11 09:35:32;;;;;;;7.15;2.97;;;;;;;;;;5080290;28;20025;-85
2021/06/11 09:38:10;;;;;;;5.65;2.88;;;;;;;;;;5052964;28;20020;-85
2021/06/11 09:40:35;;;;;;;10.60;3.38;;;;;;;;;;5051981;28;20029;-85
2021/06/11 09:43:02;;;;;;;7.78;2.40;;;;;;;;;;5052867;28;20097;-85
2021/06/11 09:45:28;;;;;;;5.70;3.13;;;;;;;;;;5053081;28;20029;-85
2021/06/11 09:47:53;;;;;;;6.45;2.53;;;;;;;;;;5052413;28;20025;-85
2021/06/11 09:50:26;;;;;;;11.05;2.90;;;;;;;;;;5054336;28;20021;-85
2021/06/11 09:52:52;;;;;;;7.47;2.40;;;;;;;;;;5048892;28;20987;-84
2021/06/11 09:55:28;;;;;;;3.92;1.92;;;;;;;;;;5050223;28;20025;-85
2021/06/11 09:58:03;;;;;;;6.03;2.00;;;;;;;;;;5052618;28;20117;-85
2021/06/11 10:00:33;;;;;;;6.10;2.40;;;;;;;;;;5048670;28;20055;-85
2021/06/11 10:02:59;;;;;;;6.40;1.80;;;;;;;;;;5053443;28;20104;-85
2021/06/11 10:05:25;;;;;;;6.25;1.92;;;;;;;;;;5053000;28;20013;-85
2021/06/11 10:07:51;;;;;;;5.80;1.90;;;;;;;;;;5047403;28;20057;-85
2021/06/11 10:10:16;;;;;;;4.38;1.92;;;;;;;;;;5052783;28;20052;-86
2021/06/11 10:12:41;;;;;;;2.05;1.20;;;;;;;;;;5049156;28;20359;-85
2021/06/11 10:15:07;;;;;;;1.90;1.23;;;;;;;;;;5051827;28;20009;-85
2021/06/11 10:17:32;;;;;;;5.47;1.35;;;;;;;;;;5047759;28;20017;-86
2021/06/11 10:19:58;;;;;;;2.33;1.17;;;;;;;;;;5051925;28;20028;-85
2021/06/11 10:22:23;;;;;;;2.50;1.13;;;;;;;;;;5052298;28;20044;-85
2021/06/11 10:24:48;;;;;;;1.45;0.82;;;;;;;;;;5051205;28;20066;-85
2021/06/11 10:27:13;;;;;;;2.03;0.88;;;;;;;;;;5051485;28;20062;-85
2021/06/11 10:29:39;;;;;;;2.15;1.00;;;;;;;;;;5052209;28;20375;-85
2021/06/11 10:32:04;;;;;;;2.38;1.00;;;;;;;;;;5052301;28;20032;-85
2021/06/11 10:34:48;;;;;;;8.38;1.10;;;;;;;;;;5053769;28;20523;-86
2021/06/11 10:37:31;;;;;;;4.35;0.90;;;;;;;;;;5052352;28;20025;-86
2021/06/11 10:40:11;;;;;;;3.60;0.90;;;;;;;;;;5052351;28;20017;-85
2021/06/11 10:42:36;;;;;;;2.88;0.73;;;;;;;;;;5053668;28;20040;-85
2021/06/11 10:45:02;;;;;;;5.03;1.00;;;;;;;;;;5053308;28;20025;-86
2021/06/11 10:47:28;;;;;;;2.38;1.27;;;;;;;;;;5050627;28;20023;-85
2021/06/11 10:49:53;;;;;;;3.95;1.20;;;;;;;;;;5051983;28;20376;-85
2021/06/11 10:52:29;;;;;;;4.27;1.13;;;;;;;;;;5053614;28;20036;-85
2021/06/11 10:54:54;;;;;;;5.22;1.00;;;;;;;;;;5048303;28;20261;-85
2021/06/11 10:57:19;;;;;;;1.80;0.80;;;;;;;;;;5052301;28;20017;-85
2021/06/11 10:59:49;;;;;;;6.53;0.70;;;;;;;;;;5051737;28;20036;-84
2021/06/11 11:02:15;;;;;;;4.45;0.80;;;;;;;;;;5049339;28;20025;-85
2021/06/11 11:04:44;;;;;;;2.17;0.70;;;;;;;;;;5052003;28;20434;-85
2021/06/11 11:07:28;;;;;;;2.97;1.10;;;;;;;;;;5048757;28;20036;-85
2021/06/11 11:09:55;;;;;;;2.78;0.90;;;;;;;;;;5082109;28;20013;-85
2021/06/11 11:12:20;;;;;;;2.80;0.93;;;;;;;;;;5049578;28;20314;-85
2021/06/11 11:14:46;;;;;;;2.33;0.85;;;;;;;;;;5052973;28;20075;-85
2021/06/11 11:17:12;;;;;;;2.08;0.90;;;;;;;;;;5049372;28;20017;-84
2021/06/11 11:19:51;;;;;;;2.45;1.00;;;;;;;;;;5083631;28;20024;-85
2021/06/11 11:22:25;;;;;;;2.00;0.88;;;;;;;;;;5044671;28;20464;-85
2021/06/11 11:24:51;;;;;;;4.40;1.10;;;;;;;;;;5051228;28;20032;-84
2021/06/11 11:27:16;;;;;;;4.13;0.80;;;;;;;;;;5044546;28;20329;-84
2021/06/11 11:29:42;;;;;;;4.90;1.10;;;;;;;;;;5046992;28;20103;-84
2021/06/11 11:32:10;;;;;;;0.90;0.80;;;;;;;;;;5047056;28;20029;-84
2021/06/11 11:34:35;;;;;;;3.72;0.90;;;;;;;;;;5047507;28;20107;-84
2021/06/11 11:37:00;;;;;;;5.13;1.95;;;;;;;;;;5048488;28;20104;-84
2021/06/11 11:39:25;;;;;;;2.40;0.80;;;;;;;;;;5049476;28;20029;-85
2021/06/11 11:41:52;;;;;;;2.10;1.17;;;;;;;;;;5074796;28;20123;-84
2021/06/11 11:44:18;;;;;;;1.95;0.90;;;;;;;;;;5048293;28;20476;-84
2021/06/11 11:46:43;;;;;;;1.65;0.90;;;;;;;;;;5051109;28;20035;-84
2021/06/11 11:49:08;;;;;;;1.98;1.00;;;;;;;;;;5049527;28;20116;-84
2021/06/11 11:51:33;;;;;;;1.30;0.90;;;;;;;;;;5051308;28;20396;-84
2021/06/11 11:53:59;;;;;;;1.55;1.05;;;;;;;;;;5050937;28;20451;-84
2021/06/11 11:56:24;;;;;;;1.25;1.00;;;;;;;;;;5048764;28;20021;-84
2021/06/11 11:58:49;;;;;;;1.92;1.00;;;;;;;;;;5051167;28;20079;-84
2021/06/11 12:01:14;;;;;;;2.00;1.05;;;;;;;;;;5043597;28;20046;-84
2021/06/11 12:03:39;;;;;;;1.75;1.00;;;;;;;;;;5050218;28;20024;-86
2021/06/11 12:06:04;;;;;;;3.17;1.48;;;;;;;;;;5048223;28;20465;-85
2021/06/11 12:08:30;;;;;;;1.90;1.10;;;;;;;;;;5052186;28;20067;-85
2021/06/11 12:10:55;;;;;;;5.95;0.90;;;;;;;;;;5050126;28;20090;-85
2021/06/11 12:13:20;;;;;;;2.60;0.90;;;;;;;;;;5047073;28;20393;-84
2021/06/11 12:15:46;;;;;;;3.30;1.30;;;;;;;;;;5076997;28;20437;-84
2021/06/11 12:18:11;;;;;;;1.70;1.02;;;;;;;;;;5044954;28;20044;-84
2021/06/11 12:20:36;;;;;;;4.25;1.00;;;;;;;;;;5048725;28;20035;-84
2021/06/11 12:23:02;;;;;;;5.97;1.30;;;;;;;;;;5048009;28;20021;-84
2021/06/11 12:25:28;;;;;;;2.80;1.15;;;;;;;;;;5050496;28;20025;-84
2021/06/11 12:27:53;;;;;;;2.25;1.10;;;;;;;;;;5048244;28;20020;-84
2021/06/11 12:30:18;;;;;;;2.47;0.80;;;;;;;;;;5047387;28;20108;-84
2021/06/11 12:32:44;;;;;;;1.60;0.80;;;;;;;;;;5046051;28;20334;-84
2021/06/11 12:35:09;;;;;;;3.80;0.98;;;;;;;;;;5049970;28;20052;-84
2021/06/11 12:37:35;;;;;;;1.58;1.20;;;;;;;;;;5049914;28;20040;-84
2021/06/11 12:40:01;;;;;;;1.80;1.00;;;;;;;;;;5047554;28;20088;-83
2021/06/11 12:42:32;;;;;;;2.20;1.13;;;;;;;;;;5045128;28;20028;-84
2021/06/11 12:44:57;;;;;;;2.67;1.15;;;;;;;;;;5052280;28;20124;-84
2021/06/11 12:47:22;;;;;;;1.88;0.88;;;;;;;;;;5049981;28;20119;-85
2021/06/11 12:49:47;;;;;;;2.03;1.20;;;;;;;;;;5050521;28;20027;-84
2021/06/11 12:52:13;;;;;;;1.70;1.10;;;;;;;;;;5050569;28;20028;-84
2021/06/11 12:54:38;;;;;;;4.75;1.17;;;;;;;;;;5048843;28;20021;-85
2021/06/11 12:57:03;;;;;;;3.70;2.00;;;;;;;;;;5050549;28;20048;-85
2021/06/11 12:59:29;;;;;;;3.92;1.10;;;;;;;;;;5051085;28;20110;-84
2021/06/11 13:01:54;;;;;;;2.67;1.10;;;;;;;;;;5050933;28;20114;-84
2021/06/11 13:04:19;;;;;;;1.75;1.05;;;;;;;;;;5049767;28;20075;-84
2021/06/11 13:06:44;;;;;;;3.55;1.35;;;;;;;;;;5050422;28;20025;-84
2021/06/11 13:09:09;;;;;;;2.13;1.25;;;;;;;;;;5049709;28;20507;-84
2021/06/11 13:11:41;;;;;;;2.80;1.30;;;;;;;;;;5050255;28;20017;-84
2021/06/11 13:14:06;;;;;;;2.67;1.25;;;;;;;;;;5051006;28;20049;-85
2021/06/11 13:16:31;;;;;;;3.15;1.30;;;;;;;;;;5051308;28;20017;-84
2021/06/11 13:18:56;;;;;;;1.77;1.30;;;;;;;;;;5050655;28;20078;-84
2021/06/11 13:21:22;;;;;;;3.38;1.30;;;;;;;;;;5051656;28;20032;-84
2021/06/11 13:23:47;;;;;;;8.15;1.00;;;;;;;;;;5062203;28;20129;-84
2021/06/11 13:26:13;;;;;;;3.58;1.30;;;;;;;;;;5050167;28;20021;-84
2021/06/11 13:28:38;;;;;;;1.73;1.25;;;;;;;;;;5051407;28;20031;-84
2021/06/11 13:31:03;;;;;;;2.80;1.45;;;;;;;;;;5053897;28;20032;-84
2021/06/11 13:33:28;;;;;;;3.67;1.40;;;;;;;;;;5054607;28;20457;-84
2021/06/11 13:35:53;;;;;;;6.53;1.27;;;;;;;;;;5054087;28;20017;-84
2021/06/11 13:38:19;;;;;;;4.25;1.58;;;;;;;;;;5052571;28;20136;-83
2021/06/11 13:40:44;;;;;;;3.95;1.50;;;;;;;;;;5053125;28;20025;-84
2021/06/11 13:43:10;;;;;;;1.88;1.23;;;;;;;;;;5053426;28;20021;-83
2021/06/11 13:45:35;;;;;;;2.78;1.38;;;;;;;;;;5049684;28;20467;-83
2021/06/11 13:48:01;;;;;;;5.47;1.73;;;;;;;;;;5054161;28;20023;-83
2021/06/11 13:50:27;;;;;;;6.15;1.10;;;;;;;;;;5051943;28;20387;-83
2021/06/11 13:52:52;;;;;;;3.83;1.50;;;;;;;;;;5053550;28;20306;-83
2021/06/11 13:55:17;;;;;;;1.52;1.10;;;;;;;;;;5053736;28;20010;-83
2021/06/11 13:57:43;;;;;;;6.45;1.25;;;;;;;;;;5054308;28;20052;-83
2021/06/11 14:00:10;;;;;;;1.73;1.20;;;;;;;;;;5053643;28;20017;-82
2021/06/11 14:02:35;;;;;;;3.05;1.10;;;;;;;;;;5052489;28;20017;-83
2021/06/11 14:05:00;;;;;;;4.20;1.48;;;;;;;;;;5053287;28;20064;-83
2021/06/11 14:07:26;;;;;;;2.40;1.40;;;;;;;;;;5053793;28;20049;-83
2021/06/11 14:09:51;;;;;;;3.72;1.38;;;;;;;;;;5053304;28;20025;-83
2021/06/11 14:12:17;;;;;;;4.82;1.17;;;;;;;;;;5052410;28;20032;-83
2021/06/11 14:14:42;;;;;;;2.22;1.20;;;;;;;;;;5052792;28;20021;-83
2021/06/11 14:17:08;;;;;;;3.83;1.20;;;;;;;;;;5052319;28;20070;-83
2021/06/11 14:19:33;;;;;;;5.00;1.80;;;;;;;;;;5051647;28;21651;-83
2021/06/11 14:21:58;;;;;;;2.58;1.20;;;;;;;;;;5048655;28;20464;-84
2021/06/11 14:24:23;;;;;;;3.78;1.30;;;;;;;;;;5052677;28;20116;-83
2021/06/11 14:26:48;;;;;;;2.08;1.25;;;;;;;;;;5052871;28;20767;-83
2021/06/11 14:29:14;;;;;;;4.50;1.25;;;;;;;;;;5052251;28;20456;-83
2021/06/11 14:31:39;;;;;;;2.58;1.23;;;;;;;;;;5052865;28;20507;-83
2021/06/11 14:34:04;;;;;;;7.78;1.48;;;;;;;;;;5052712;28;20029;-83
2021/06/11 14:36:29;;;;;;;1.67;1.23;;;;;;;;;;5052357;28;20029;-83
2021/06/11 14:38:54;;;;;;;5.07;1.58;;;;;;;;;;5053211;28;20017;-83